createdAt,value
2023-02-24T00:00:33.830Z,6.58
2023-02-24T00:03:06.299Z,6.57
2023-02-24T00:05:36.087Z,6.54
2023-02-24T00:08:03.998Z,6.53
2023-02-24T00:10:34.090Z,6.47
2023-02-24T00:13:02.012Z,6.50
2023-02-24T00:15:30.199Z,6.54
2023-02-24T00:17:58.441Z,6.58
2023-02-24T00:20:26.346Z,6.62
2023-02-24T00:22:54.370Z,6.65
2023-02-24T00:25:22.353Z,6.67
2023-02-24T00:27:51.625Z,6.68
2023-02-24T00:30:21.510Z,6.56
2023-02-24T00:32:50.351Z,6.67
2023-02-24T00:35:18.352Z,6.63
2023-02-24T00:37:51.264Z,6.57
2023-02-24T00:40:23.383Z,6.52
2023-02-24T00:42:54.091Z,6.47
2023-02-24T00:45:21.982Z,6.43
2023-02-24T00:47:49.875Z,6.40
2023-02-24T00:50:18.367Z,6.38
2023-02-24T00:52:46.285Z,6.38
2023-02-24T00:55:15.177Z,6.33
2023-02-24T00:57:43.086Z,6.34
2023-02-24T01:00:16.696Z,6.35
2023-02-24T01:02:47.248Z,6.31
2023-02-24T01:05:15.947Z,6.33
2023-02-24T01:07:43.891Z,6.31
2023-02-24T01:10:12.985Z,6.33
2023-02-24T01:12:49.661Z,6.32
2023-02-24T01:15:19.576Z,6.33
2023-02-24T01:17:47.740Z,6.32
2023-02-24T01:20:17.992Z,6.21
2023-02-24T01:22:47.043Z,6.11
2023-02-24T01:25:14.883Z,6.04
2023-02-24T01:27:42.780Z,6.02
2023-02-24T01:30:15.775Z,6.02
2023-02-24T01:32:46.737Z,6.05
2023-02-24T01:35:15.079Z,6.05
2023-02-24T01:37:43.350Z,6.04
2023-02-24T01:40:18.635Z,6.08
2023-02-24T01:42:49.421Z,6.08
2023-02-24T01:45:22.852Z,6.04
2023-02-24T01:47:52.297Z,6.02
2023-02-24T01:50:22.038Z,6.02
2023-02-24T01:52:50.835Z,5.98
2023-02-24T01:55:22.446Z,6.10
2023-02-24T01:57:50.399Z,6.10
2023-02-24T02:00:32.769Z,6.23
2023-02-24T02:03:05.152Z,6.29
2023-02-24T02:05:33.052Z,6.31
2023-02-24T02:08:00.944Z,6.30
2023-02-24T02:10:29.035Z,6.26
2023-02-24T02:12:56.947Z,6.27
2023-02-24T02:15:24.887Z,6.22
2023-02-24T02:17:57.199Z,6.09
2023-02-24T02:20:57.810Z,6.01
2023-02-24T02:23:53.927Z,6.10
2023-02-24T02:27:00.453Z,6.14
2023-02-24T02:29:46.318Z,6.15
2023-02-24T02:32:31.522Z,6.40
2023-02-24T02:35:02.269Z,6.55
2023-02-24T02:37:33.009Z,6.68
2023-02-24T02:40:02.803Z,6.79
2023-02-24T02:42:31.423Z,6.86
2023-02-24T02:45:05.339Z,6.92
2023-02-24T02:47:36.712Z,6.90
2023-02-24T02:50:09.437Z,6.82
2023-02-24T02:52:40.089Z,6.79
2023-02-24T02:55:10.191Z,6.80
2023-02-24T02:57:38.373Z,6.77
2023-02-24T03:00:13.131Z,6.64
2023-02-24T03:02:41.342Z,6.68
2023-02-24T03:05:11.272Z,6.66
2023-02-24T03:07:42.008Z,6.57
2023-02-24T03:10:17.781Z,6.65
2023-02-24T03:12:45.930Z,6.71
2023-02-24T03:15:14.155Z,6.81
2023-02-24T03:17:43.330Z,6.94
2023-02-24T03:20:17.524Z,6.94
2023-02-24T03:22:49.905Z,7.16
2023-02-24T03:25:18.326Z,7.25
2023-02-24T03:27:48.451Z,7.33
2023-02-24T03:30:18.537Z,7.39
2023-02-24T03:32:51.514Z,7.43
2023-02-24T03:35:22.150Z,7.39
2023-02-24T03:37:49.992Z,7.44
2023-02-24T03:40:18.265Z,7.42
2023-02-24T03:42:47.329Z,7.40
2023-02-24T03:45:16.335Z,7.38
2023-02-24T03:47:46.660Z,7.38
2023-02-24T03:50:17.190Z,7.43
2023-02-24T03:52:48.966Z,7.46
2023-02-24T03:55:19.725Z,7.54
2023-02-24T03:57:59.974Z,7.59
2023-02-24T04:00:35.101Z,7.27
2023-02-24T04:03:07.602Z,7.65
2023-02-24T04:05:35.516Z,7.67
2023-02-24T04:08:05.218Z,7.68
2023-02-24T04:10:35.136Z,7.70
2023-02-24T04:13:05.569Z,7.69
2023-02-24T04:15:37.713Z,7.65
2023-02-24T04:18:07.235Z,7.60
2023-02-24T04:20:35.538Z,7.66
2023-02-24T04:23:08.746Z,7.64
2023-02-24T04:25:36.696Z,7.73
2023-02-24T04:28:04.757Z,7.80
2023-02-24T04:30:34.774Z,7.85
2023-02-24T04:33:02.627Z,7.92
2023-02-24T04:35:30.518Z,7.93
2023-02-24T04:37:58.437Z,7.99
2023-02-24T04:40:27.680Z,8.02
2023-02-24T04:42:55.586Z,8.00
2023-02-24T04:45:24.858Z,7.96
2023-02-24T04:47:56.058Z,7.99
2023-02-24T04:50:25.736Z,8.03
2023-02-24T04:52:54.198Z,8.04
2023-02-24T04:55:23.230Z,8.04
2023-02-24T04:57:53.565Z,8.08
2023-02-24T05:00:22.896Z,8.08
2023-02-24T05:02:50.796Z,8.10
2023-02-24T05:05:25.494Z,8.14
2023-02-24T05:07:54.604Z,8.17
2023-02-24T05:10:27.834Z,8.17
2023-02-24T05:12:58.545Z,8.19
2023-02-24T05:15:31.293Z,8.22
2023-02-24T05:18:00.728Z,8.25
2023-02-24T05:20:45.789Z,8.28
2023-02-24T05:23:13.681Z,8.30
2023-02-24T05:25:43.054Z,8.34
2023-02-24T05:28:12.417Z,8.38
2023-02-24T05:30:40.434Z,8.36
2023-02-24T05:33:09.034Z,8.37
2023-02-24T05:35:38.223Z,8.39
2023-02-24T05:38:08.248Z,8.42
2023-02-24T05:40:36.205Z,8.44
2023-02-24T05:43:05.179Z,8.37
2023-02-24T05:45:34.524Z,8.43
2023-02-24T05:48:05.889Z,8.46
2023-02-24T05:50:33.861Z,8.38
2023-02-24T05:53:03.383Z,8.41
2023-02-24T05:55:32.474Z,8.38
2023-02-24T05:58:00.382Z,8.39
2023-02-24T06:00:28.439Z,8.41
2023-02-24T06:03:08.360Z,8.43
2023-02-24T06:05:39.775Z,8.47
2023-02-24T06:08:11.816Z,8.48
2023-02-24T06:10:41.057Z,8.53
2023-02-24T06:13:10.397Z,8.51
2023-02-24T06:15:38.564Z,8.58
2023-02-24T06:18:11.671Z,8.56
2023-02-24T06:20:40.334Z,8.56
2023-02-24T06:23:08.857Z,8.54
2023-02-24T06:25:38.686Z,8.55
2023-02-24T06:28:06.700Z,8.55
2023-02-24T06:30:35.204Z,8.60
2023-02-24T06:33:03.147Z,8.61
2023-02-24T06:35:32.922Z,8.68
2023-02-24T06:38:00.840Z,8.72
2023-02-24T06:40:28.841Z,8.81
2023-02-24T06:42:57.094Z,8.87
2023-02-24T06:45:26.391Z,8.91
2023-02-24T06:47:54.332Z,8.95
2023-02-24T06:50:22.243Z,8.98
2023-02-24T06:52:53.244Z,8.99
2023-02-24T06:55:27.056Z,8.95
2023-02-24T06:57:57.372Z,9.03
2023-02-24T07:00:37.268Z,9.06
2023-02-24T07:03:15.738Z,9.10
2023-02-24T07:05:50.456Z,9.10
2023-02-24T07:08:21.179Z,9.09
2023-02-24T07:10:53.899Z,9.07
2023-02-24T07:13:21.776Z,9.03
2023-02-24T07:15:51.138Z,8.99
2023-02-24T07:18:19.183Z,8.97
2023-02-24T07:20:47.196Z,8.92
2023-02-24T07:23:15.494Z,8.94
2023-02-24T07:25:47.709Z,8.78
2023-02-24T07:28:17.133Z,8.96
2023-02-24T07:30:45.824Z,8.99
2023-02-24T07:33:17.080Z,8.98
2023-02-24T07:35:45.520Z,9.02
2023-02-24T07:38:17.466Z,9.04
2023-02-24T07:40:47.421Z,9.05
2023-02-24T07:43:16.380Z,9.10
2023-02-24T07:45:44.555Z,9.12
2023-02-24T07:48:12.513Z,9.19
2023-02-24T07:50:42.074Z,9.22
2023-02-24T07:53:10.102Z,9.24
2023-02-24T07:55:37.991Z,9.26
2023-02-24T07:58:07.272Z,9.27
2023-02-24T08:00:50.462Z,9.31
2023-02-24T08:03:18.320Z,9.36
2023-02-24T08:05:46.375Z,9.37
2023-02-24T08:08:20.975Z,9.42
2023-02-24T08:10:49.084Z,9.33
2023-02-24T08:13:19.238Z,9.50
2023-02-24T08:15:56.508Z,9.57
2023-02-24T08:18:28.498Z,9.65
2023-02-24T08:21:04.640Z,9.72
2023-02-24T08:23:34.472Z,9.78
2023-02-24T08:26:07.712Z,9.83
2023-02-24T08:28:47.459Z,9.89
2023-02-24T08:31:18.755Z,9.91
2023-02-24T08:33:46.720Z,9.94
2023-02-24T08:36:21.434Z,9.99
2023-02-24T08:38:52.311Z,9.93
2023-02-24T08:41:29.214Z,10.09
2023-02-24T08:44:10.256Z,10.15
2023-02-24T08:46:39.895Z,10.20
2023-02-24T08:49:11.048Z,10.12
2023-02-24T08:51:43.877Z,10.27
2023-02-24T08:54:15.495Z,10.45
2023-02-24T08:56:44.451Z,10.54
2023-02-24T08:59:29.180Z,10.59
2023-02-24T09:02:17.423Z,10.64
2023-02-24T09:04:46.044Z,10.71
2023-02-24T09:07:15.465Z,10.75
2023-02-24T09:09:43.582Z,10.75
2023-02-24T09:12:21.959Z,10.76
2023-02-24T09:14:55.445Z,10.76
2023-02-24T09:17:40.184Z,10.73
2023-02-24T09:20:27.529Z,10.75
2023-02-24T09:23:03.745Z,10.68
2023-02-24T09:25:45.106Z,10.83
2023-02-24T09:28:17.457Z,10.85
2023-02-24T09:30:56.988Z,10.90
2023-02-24T09:33:27.005Z,10.96
2023-02-24T09:36:03.345Z,11.05
2023-02-24T09:38:48.842Z,11.12
2023-02-24T09:41:31.807Z,11.05
2023-02-24T09:44:03.735Z,11.22
2023-02-24T09:46:37.072Z,11.31
2023-02-24T09:49:09.040Z,11.38
2023-02-24T09:51:42.382Z,11.44
2023-02-24T09:54:15.496Z,11.47
2023-02-24T09:56:45.916Z,11.52
2023-02-24T09:59:26.061Z,11.60
2023-02-24T10:02:02.311Z,11.38
2023-02-24T10:04:54.771Z,11.67
2023-02-24T10:07:26.955Z,11.72
2023-02-24T10:10:01.990Z,11.79
2023-02-24T10:12:34.102Z,11.81
2023-02-24T10:15:17.901Z,12.06
2023-02-24T10:17:50.281Z,12.18
2023-02-24T10:20:31.091Z,12.33
2023-02-24T10:23:00.663Z,12.51
2023-02-24T10:25:36.843Z,12.71
2023-02-24T10:28:08.089Z,12.93
2023-02-24T10:30:43.546Z,13.02
2023-02-24T10:33:20.671Z,13.31
2023-02-24T10:35:50.255Z,13.45
2023-02-24T10:38:18.189Z,13.35
2023-02-24T10:40:47.245Z,13.61
2023-02-24T10:43:17.907Z,13.77
2023-02-24T10:45:46.745Z,13.76
2023-02-24T10:48:40.294Z,13.83
2023-02-24T10:51:12.406Z,13.85
2023-02-24T10:53:43.671Z,13.88
2023-02-24T10:56:26.834Z,13.88
2023-02-24T10:59:20.621Z,14.01
2023-02-24T11:01:59.243Z,14.00
2023-02-24T11:04:53.968Z,14.02
2023-02-24T11:07:43.823Z,14.00
2023-02-24T11:10:25.949Z,13.99
2023-02-24T11:13:12.088Z,14.12
2023-02-24T11:16:01.132Z,14.46
2023-02-24T11:18:29.852Z,14.79
2023-02-24T11:21:00.113Z,15.05
2023-02-24T11:23:29.780Z,15.24
2023-02-24T11:26:00.810Z,15.39
2023-02-24T11:28:49.443Z,15.24
2023-02-24T11:31:25.580Z,15.48
2023-02-24T11:33:57.288Z,15.76
2023-02-24T11:36:30.831Z,15.97
2023-02-24T11:39:17.211Z,15.95
2023-02-24T11:41:48.496Z,15.74
2023-02-24T11:44:20.004Z,15.70
2023-02-24T11:46:50.078Z,15.64
2023-02-24T11:49:24.848Z,15.60
2023-02-24T11:51:54.084Z,15.58
2023-02-24T11:54:23.247Z,15.56
2023-02-24T11:56:53.415Z,15.63
2023-02-24T11:59:23.585Z,15.70
2023-02-24T12:01:58.440Z,15.79
2023-02-24T12:04:27.663Z,15.74
2023-02-24T12:07:00.312Z,15.96
2023-02-24T12:09:31.355Z,15.93
2023-02-24T12:12:02.096Z,16.00
2023-02-24T12:14:34.666Z,16.01
2023-02-24T12:17:07.821Z,15.94
2023-02-24T12:19:39.359Z,15.87
2023-02-24T12:22:13.964Z,15.89
2023-02-24T12:24:42.371Z,15.79
2023-02-24T12:27:15.950Z,15.84
2023-02-24T12:30:06.493Z,15.93
2023-02-24T12:32:46.203Z,15.93
2023-02-24T12:35:19.962Z,16.10
2023-02-24T12:37:55.514Z,16.12
2023-02-24T12:40:30.928Z,16.08
2023-02-24T12:43:03.934Z,15.89
2023-02-24T12:45:38.320Z,16.03
2023-02-24T12:48:09.594Z,15.95
2023-02-24T12:50:43.965Z,15.98
2023-02-24T12:53:18.847Z,16.01
2023-02-24T12:55:50.867Z,15.95
2023-02-24T12:58:20.526Z,15.82
2023-02-24T13:00:55.978Z,15.75
2023-02-24T13:03:30.075Z,15.72
2023-02-24T13:06:03.578Z,15.63
2023-02-24T13:08:40.402Z,15.55
2023-02-24T13:11:13.248Z,15.30
2023-02-24T13:13:46.544Z,15.29
2023-02-24T13:16:15.985Z,15.15
2023-02-24T13:18:44.150Z,15.17
2023-02-24T13:21:26.215Z,15.07
2023-02-24T13:23:58.166Z,15.09
2023-02-24T13:26:26.542Z,15.03
2023-02-24T13:29:02.562Z,15.06
2023-02-24T13:31:44.123Z,15.11
2023-02-24T13:34:16.869Z,15.09
2023-02-24T13:36:48.030Z,15.14
2023-02-24T13:39:27.226Z,15.11
2023-02-24T13:42:04.039Z,15.22
2023-02-24T13:44:32.042Z,15.27
2023-02-24T13:47:17.302Z,15.38
2023-02-24T13:49:49.362Z,15.47
2023-02-24T13:52:20.768Z,15.57
2023-02-24T13:55:02.955Z,15.59
2023-02-24T13:57:51.638Z,15.57
2023-02-24T14:00:27.706Z,15.58
2023-02-24T14:02:55.610Z,15.59
2023-02-24T14:05:25.392Z,15.65
2023-02-24T14:07:54.613Z,15.70
2023-02-24T14:10:25.337Z,15.67
2023-02-24T14:13:02.019Z,15.87
2023-02-24T14:15:29.912Z,15.93
2023-02-24T14:17:58.400Z,15.97
2023-02-24T14:20:27.360Z,15.97
2023-02-24T14:22:58.852Z,15.93
2023-02-24T14:25:30.592Z,16.01
2023-02-24T14:27:58.526Z,16.05
2023-02-24T14:30:34.521Z,16.04
2023-02-24T14:33:02.587Z,16.03
2023-02-24T14:35:33.996Z,16.13
2023-02-24T14:38:02.434Z,16.09
2023-02-24T14:40:33.088Z,16.10
2023-02-24T14:43:00.973Z,16.00
2023-02-24T14:45:31.491Z,15.75
2023-02-24T14:47:59.493Z,15.98
2023-02-24T14:50:29.263Z,16.02
2023-02-24T14:52:58.726Z,15.90
2023-02-24T14:55:32.519Z,15.86
2023-02-24T14:58:02.869Z,15.88
2023-02-24T15:00:32.424Z,15.91
2023-02-24T15:03:05.856Z,15.84
2023-02-24T15:05:33.905Z,15.83
2023-02-24T15:08:05.168Z,15.74
2023-02-24T15:10:48.358Z,15.45
2023-02-24T15:13:18.010Z,15.76
2023-02-24T15:15:50.174Z,15.80
2023-02-24T15:18:21.313Z,15.76
2023-02-24T15:21:02.355Z,15.77
2023-02-24T15:23:31.891Z,15.74
2023-02-24T15:26:01.666Z,15.73
2023-02-24T15:28:34.204Z,15.58
2023-02-24T15:31:04.761Z,15.66
2023-02-24T15:33:36.323Z,15.70
2023-02-24T15:36:07.696Z,15.68
2023-02-24T15:38:37.733Z,15.52
2023-02-24T15:41:07.388Z,15.65
2023-02-24T15:43:37.171Z,15.70
2023-02-24T15:46:22.140Z,15.79
2023-02-24T15:48:50.819Z,15.81
2023-02-24T15:51:22.803Z,15.82
2023-02-24T15:53:50.675Z,15.77
2023-02-24T15:56:20.179Z,15.74
2023-02-24T15:58:48.276Z,15.76
2023-02-24T16:01:16.211Z,15.74
2023-02-24T16:03:44.240Z,15.76
2023-02-24T16:06:15.705Z,15.78
2023-02-24T16:08:46.557Z,15.81
2023-02-24T16:11:14.759Z,15.81
2023-02-24T16:13:44.687Z,15.87
2023-02-24T16:16:13.033Z,15.89
2023-02-24T16:18:40.945Z,15.90
2023-02-24T16:21:09.029Z,15.85
2023-02-24T16:23:40.674Z,15.81
2023-02-24T16:26:09.149Z,15.74
2023-02-24T16:28:37.030Z,15.67
2023-02-24T16:31:07.627Z,15.61
2023-02-24T16:33:51.849Z,15.54
2023-02-24T16:36:22.009Z,15.44
2023-02-24T16:38:51.772Z,15.31
2023-02-24T16:41:19.846Z,15.18
2023-02-24T16:43:47.760Z,15.10
2023-02-24T16:46:18.370Z,15.08
2023-02-24T16:48:46.841Z,15.08
2023-02-24T16:51:14.818Z,15.05
2023-02-24T16:53:43.172Z,15.05
2023-02-24T16:56:12.034Z,15.04
2023-02-24T16:58:39.897Z,15.03
2023-02-24T17:01:07.858Z,15.02
2023-02-24T17:03:39.046Z,14.88
2023-02-24T17:06:07.076Z,14.96
2023-02-24T17:08:35.002Z,14.92
2023-02-24T17:11:02.854Z,14.91
2023-02-24T17:13:30.731Z,14.90
2023-02-24T17:15:58.687Z,14.87
2023-02-24T17:18:26.784Z,14.84
2023-02-24T17:20:56.060Z,14.78
2023-02-24T17:23:23.996Z,14.74
2023-02-24T17:25:53.628Z,14.67
2023-02-24T17:28:21.556Z,14.56
2023-02-24T17:30:49.597Z,14.44
2023-02-24T17:33:17.781Z,14.34
2023-02-24T17:35:46.987Z,14.19
2023-02-24T17:38:16.258Z,14.13
2023-02-24T17:40:44.368Z,14.06
2023-02-24T17:43:12.239Z,13.99
2023-02-24T17:45:43.063Z,13.93
2023-02-24T17:48:11.028Z,13.84
2023-02-24T17:50:39.001Z,13.69
2023-02-24T17:53:06.871Z,13.72
2023-02-24T17:55:36.152Z,13.63
2023-02-24T17:58:04.046Z,13.66
2023-02-24T18:00:31.946Z,13.65
2023-02-24T18:03:02.269Z,13.60
2023-02-24T18:05:31.180Z,13.60
2023-02-24T18:07:59.149Z,13.57
2023-02-24T18:10:27.348Z,13.58
2023-02-24T18:12:56.608Z,13.55
2023-02-24T18:15:24.474Z,13.54
2023-02-24T18:17:52.383Z,13.53
2023-02-24T18:20:20.328Z,13.54
2023-02-24T18:22:48.198Z,13.55
2023-02-24T18:25:16.161Z,13.54
2023-02-24T18:27:44.039Z,13.51
2023-02-24T18:30:17.779Z,13.48
2023-02-24T18:32:45.865Z,13.45
2023-02-24T18:35:14.420Z,13.43
2023-02-24T18:37:42.275Z,13.45
2023-02-24T18:40:11.666Z,13.44
2023-02-24T18:42:39.558Z,13.44
2023-02-24T18:45:08.056Z,13.41
2023-02-24T18:47:37.347Z,13.36
2023-02-24T18:50:05.759Z,13.31
2023-02-24T18:52:34.565Z,13.28
2023-02-24T18:55:02.512Z,13.27
2023-02-24T18:57:30.448Z,13.26
2023-02-24T18:59:58.534Z,13.26
2023-02-24T19:02:26.416Z,13.27
2023-02-24T19:04:55.744Z,12.98
2023-02-24T19:07:23.662Z,13.36
2023-02-24T19:09:51.598Z,13.41
2023-02-24T19:12:20.484Z,13.44
2023-02-24T19:14:52.139Z,13.47
2023-02-24T19:17:20.173Z,13.51
2023-02-24T19:19:48.044Z,13.54
2023-02-24T19:22:17.284Z,13.54
2023-02-24T19:24:45.443Z,13.58
2023-02-24T19:27:14.085Z,13.60
2023-02-24T19:29:42.103Z,13.60
2023-02-24T19:32:10.048Z,13.62
2023-02-24T19:34:38.303Z,13.63
2023-02-24T19:37:06.137Z,13.61
2023-02-24T19:39:35.408Z,13.63
2023-02-24T19:42:03.285Z,13.64
2023-02-24T19:44:31.118Z,13.63
2023-02-24T19:46:58.961Z,13.58
2023-02-24T19:49:26.827Z,13.57
2023-02-24T19:51:55.128Z,13.50
2023-02-24T19:54:23.220Z,13.46
2023-02-24T19:56:52.547Z,13.45
2023-02-24T19:59:20.488Z,13.42
2023-02-24T20:01:51.704Z,13.40
2023-02-24T20:04:19.675Z,13.39
2023-02-24T20:06:47.735Z,13.38
2023-02-24T20:09:16.655Z,13.39
2023-02-24T20:11:45.350Z,13.38
2023-02-24T20:14:14.866Z,13.32
2023-02-24T20:16:43.207Z,13.22
2023-02-24T20:19:11.500Z,13.14
2023-02-24T20:21:39.655Z,13.10
2023-02-24T20:24:08.888Z,13.09
2023-02-24T20:26:36.962Z,13.08
2023-02-24T20:29:04.876Z,13.08
2023-02-24T20:31:34.176Z,13.13
2023-02-24T20:34:02.118Z,13.10
2023-02-24T20:36:30.047Z,13.08
2023-02-24T20:38:59.189Z,13.06
2023-02-24T20:41:27.549Z,13.00
2023-02-24T20:43:55.910Z,12.94
2023-02-24T20:46:25.456Z,12.87
2023-02-24T20:48:56.675Z,12.81
2023-02-24T20:51:24.592Z,12.74
2023-02-24T20:53:57.792Z,12.70
2023-02-24T20:56:26.587Z,12.69
2023-02-24T20:58:59.824Z,12.65
2023-02-24T21:01:27.812Z,12.61
2023-02-24T21:03:57.091Z,12.56
2023-02-24T21:06:25.402Z,12.49
2023-02-24T21:08:54.228Z,12.44
2023-02-24T21:11:22.265Z,12.36
2023-02-24T21:13:50.669Z,12.31
2023-02-24T21:16:19.151Z,12.25
2023-02-24T21:18:47.832Z,12.14
2023-02-24T21:21:17.224Z,12.09
2023-02-24T21:23:45.087Z,12.01
2023-02-24T21:26:13.083Z,11.96
2023-02-24T21:28:41.553Z,11.90
2023-02-24T21:31:10.574Z,11.83
2023-02-24T21:33:38.559Z,11.80
2023-02-24T21:36:07.691Z,11.74
2023-02-24T21:38:36.973Z,11.73
2023-02-24T21:41:07.114Z,11.68
2023-02-24T21:43:35.347Z,11.66
2023-02-24T21:46:03.388Z,11.64
2023-02-24T21:48:31.275Z,11.63
2023-02-24T21:50:59.979Z,11.61
2023-02-24T21:53:28.590Z,11.58
2023-02-24T21:56:11.045Z,11.56
2023-02-24T21:58:39.796Z,11.56
2023-02-24T22:01:12.005Z,11.53
2023-02-24T22:03:39.976Z,11.49
2023-02-24T22:06:09.687Z,11.43
2023-02-24T22:08:37.907Z,11.38
2023-02-24T22:11:07.291Z,11.31
2023-02-24T22:13:35.177Z,11.22
2023-02-24T22:16:05.441Z,11.18
2023-02-24T22:18:33.344Z,11.12
2023-02-24T22:21:01.362Z,11.05
2023-02-24T22:23:29.275Z,10.99
2023-02-24T22:25:57.156Z,10.91
2023-02-24T22:28:26.420Z,10.86
2023-02-24T22:30:57.679Z,10.81
2023-02-24T22:33:25.690Z,10.78
2023-02-24T22:35:53.743Z,10.60
2023-02-24T22:38:21.754Z,10.65
2023-02-24T22:40:58.924Z,10.56
2023-02-24T22:43:28.741Z,10.46
2023-02-24T22:45:58.024Z,10.45
2023-02-24T22:48:26.699Z,10.42
2023-02-24T22:50:55.520Z,10.43
2023-02-24T22:53:23.497Z,10.44
2023-02-24T22:55:51.438Z,10.44
2023-02-24T22:58:19.844Z,10.45
2023-02-24T23:00:49.205Z,10.45
2023-02-24T23:03:17.750Z,10.45
2023-02-24T23:05:55.130Z,10.43
2023-02-24T23:08:23.638Z,10.37
2023-02-24T23:10:51.569Z,10.32
2023-02-24T23:13:20.847Z,10.27
2023-02-24T23:15:50.416Z,10.24
2023-02-24T23:18:18.319Z,10.20
2023-02-24T23:20:46.603Z,10.23
2023-02-24T23:23:14.463Z,10.29
2023-02-24T23:25:42.405Z,10.32
2023-02-24T23:28:10.399Z,10.37
2023-02-24T23:30:41.900Z,10.44
2023-02-24T23:33:11.149Z,10.44
2023-02-24T23:35:40.750Z,10.46
2023-02-24T23:38:08.654Z,10.48
2023-02-24T23:40:49.230Z,10.53
2023-02-24T23:43:18.137Z,10.57
2023-02-24T23:45:46.053Z,10.59
2023-02-24T23:48:15.689Z,10.57
2023-02-24T23:50:45.958Z,10.55
2023-02-24T23:53:13.830Z,10.51
2023-02-24T23:55:41.715Z,10.47
2023-02-24T23:58:09.592Z,10.44
